Tasman Crusader — A8NQ7 — position and weather

sailwx.info

Track history (hours):
 
Tides and Currents Weather Stations Pressure Air Temp Water Temp Dewpoint Dewpoint Depression Visibility Wind Speed Wind Dir Waves Ship Positions

Tasman Crusader

Last reported at 2015-May-28 07:33 UTC. Time now 2015-May-29 04:17 UTC.
Position N 30°53' W 118°08'.

Length 186 m; draft 9.6 m.

Type: Cargo ship. MMSI: 636091434.

Date/timePositionNaut miles runAvg speedWind from/ knotsBaromVisibWave heightAir tempDewpointWater temp
2015-May-28 07:33N 30°53' W 118°08'1817.5
2015-May-28 06:31N 31°08' W 118°20'1717.5
2015-May-28 05:33N 31°22' W 118°32'1817.6
2015-May-28 04:31N 31°36' W 118°44'1717.4
2015-May-28 03:33N 31°50' W 118°56'1917.4
2015-May-28 02:27N 32°05' W 119°09'4117.5
2015-May-28 00:06N 32°39' W 119°38'3417.4
2015-May-27 22:09N 33°06' W 120°02'11517.4
2015-May-27 15:33N 34°41' W 121°20'1818.5
2015-May-27 14:33N 34°57' W 121°29'3417.2
2015-May-27 12:33N 35°29' W 121°46'1717.2
2015-May-27 11:33N 35°45' W 121°56'1717.5
2015-May-27 10:33N 36°00' W 122°04'1717.4
2015-May-27 09:33N 36°16' W 122°13'1817.7
2015-May-27 08:33N 36°32' W 122°22'1817.7
2015-May-27 07:33N 36°48' W 122°32'1717.3
2015-May-27 06:33N 37°04' W 122°40'1615.7
2015-May-27 05:33N 37°20' W 122°44'10 9.7
2015-May-27 04:33N 37°29' W 122°43'10 9.8
2015-May-27 03:33N 37°39' W 122°43'9 9.1
2015-May-27 02:33N 37°46' W 122°37'1312.6
2015-May-27 01:33N 37°48' W 122°21'1 1.3
2015-May-27 00:32N 37°49' W 122°19'0 0.0
2015-May-26 23:29N 37°49' W 122°19'0 0.0
2015-May-26 22:32N 37°49' W 122°19'0 0.0
2015-May-26 21:29N 37°49' W 122°19'0 0.0
2015-May-26 20:23N 37°49' W 122°19'0 0.0
2015-May-26 19:32N 37°49' W 122°19'0 0.0
2015-May-26 18:32N 37°49' W 122°19'0 0.0
2015-May-26 17:32N 37°49' W 122°19'0 0.0
2015-May-26 16:32N 37°49' W 122°19'0 0.0
2015-May-26 15:32N 37°49' W 122°19'0 0.0
2015-May-26 14:32N 37°49' W 122°19'0 0.0
2015-May-26 13:32N 37°49' W 122°19'1 1.1
2015-May-26 12:33N 37°49' W 122°20'4 4.3
2015-May-26 11:31N 37°44' W 122°20'0 0.0
2015-May-26 10:32N 37°44' W 122°20'0 0.1
2015-May-26 09:31N 37°44' W 122°20'0 0.2
2015-May-26 08:32N 37°44' W 122°20'0 0.0
2015-May-26 07:31N 37°44' W 122°20'0 0.0
2015-May-26 06:31N 37°44' W 122°20'0 0.0
2015-May-26 05:31N 37°44' W 122°20'0 0.1
2015-May-26 04:31N 37°44' W 122°20'0 0.1
2015-May-26 03:31N 37°44' W 122°20'0 0.0
2015-May-26 02:31N 37°44' W 122°20'0 0.1
2015-May-26 01:28N 37°44' W 122°20'1 0.6
2015-May-26 00:33N 37°44' W 122°20'9 9.4
2015-May-25 23:33N 37°48' W 122°31'1010.1
2015-May-25 22:33N 37°41' W 122°40'9 9.2
2015-May-25 21:33N 37°32' W 122°40'9 9.5
2015-May-25 20:33N 37°22' W 122°40'9 9.3
2015-May-25 19:33N 37°13' W 122°37'1010.1
2015-May-25 18:33N 37°04' W 122°31'1010.2
2015-May-25 17:32N 36°55' W 122°25'1010.6
2015-May-25 16:33N 36°46' W 122°20'1111.0
2015-May-25 15:33N 36°36' W 122°13'1111.2
2015-May-25 14:33N 36°26' W 122°07'1111.1
2015-May-25 13:33N 36°16' W 122°01'1111.1
2015-May-25 12:33N 36°06' W 121°54'1111.3
2015-May-25 11:33N 35°56' W 121°48'1111.2
2015-May-25 10:33N 35°46' W 121°42'1211.7
2015-May-25 09:31N 35°35' W 121°35'1411.6
2015-May-25 08:17N 35°23' W 121°27'811.2
2015-May-25 07:32N 35°15' W 121°22'1111.2
2015-May-25 06:33N 35°05' W 121°16'1111.0
2015-May-25 05:33N 34°56' W 121°10'1211.3
2015-May-25 04:30N 34°45' W 121°03'1211.3
2015-May-25 03:29N 34°35' W 120°57'1011.1
2015-May-25 02:33N 34°26' W 120°51'13810.7
2015-May-24 13:33N 33°44' W 118°12'3 3.1
2015-May-24 12:32N 33°46' W 118°14'0 0.0
2015-May-24 11:32N 33°46' W 118°14'0 0.0
2015-May-24 10:32N 33°46' W 118°14'0 0.0
2015-May-24 09:14N 33°46' W 118°14'0 0.1
2015-May-24 08:32N 33°46' W 118°14'0 0.0
2015-May-24 07:32N 33°46' W 118°14'0 0.0
2015-May-24 06:29N 33°46' W 118°14'0 0.1
2015-May-24 05:32N 33°46' W 118°14'0 0.0
2015-May-24 04:11N 33°46' W 118°14'0 0.0
2015-May-24 03:32N 33°46' W 118°14'0 0.0
2015-May-24 02:32N 33°46' W 118°14'0 0.0
2015-May-24 01:32N 33°46' W 118°14'0 0.0
2015-May-24 00:32N 33°46' W 118°14'0 0.0
2015-May-23 23:32N 33°46' W 118°14'0 0.0
2015-May-23 22:29N 33°46' W 118°14'0 0.0
2015-May-23 21:29N 33°46' W 118°14'0 0.0
2015-May-23 20:32N 33°46' W 118°14'0 0.0
2015-May-23 19:32N 33°46' W 118°14'0 0.0
2015-May-23 18:29N 33°46' W 118°14'0 0.0
2015-May-23 17:32N 33°46' W 118°14'0 0.0
2015-May-23 16:32N 33°46' W 118°14'0 0.0
2015-May-23 15:32N 33°46' W 118°14'0 0.0
2015-May-23 14:32N 33°46' W 118°14'0 0.0
2015-May-23 13:32N 33°46' W 118°14'0 0.0
2015-May-23 12:32N 33°46' W 118°14'0 0.0
2015-May-23 11:32N 33°46' W 118°14'2 1.6
2015-May-23 10:33N 33°45' W 118°13'9 6.4
2015-May-23 09:14N 33°37' W 118°15'  
2015-May-20 16:32N 33°32' W 118°09'1010.7
2015-May-20 15:33N 33°23' W 118°04'8 8.1
2015-May-20 14:34N 33°15' W 118°01'1211.8
2015-May-20 13:34N 33°04' W 117°56'1413.8
2015-May-20 12:33N 32°51' W 117°51'1414.2
2015-May-20 11:33N 32°38' W 117°44'1414.1
2015-May-20 10:33N 32°24' W 117°39'1514.3
2015-May-20 09:30N 32°10' W 117°34'1614.2
2015-May-20 08:22N 31°55' W 117°27'1214.2
2015-May-20 07:30N 31°44' W 117°22'1414.3
2015-May-20 06:33N 31°31' W 117°16'  
Track history (hours):
 
Tides and Currents Weather Stations Pressure Air Temp Water Temp Dewpoint Dewpoint Depression Visibility Wind Speed Wind Dir Waves Ship Positions

Tasman Crusader

Last reported at 2015-May-28 07:33 UTC. Time now 2015-May-29 04:17 UTC.
Position N 30°53' W 118°08'.

Length 186 m; draft 9.6 m.

Type: Cargo ship. MMSI: 636091434.

Date/timePositionNaut miles runAvg speedWind from/ knotsBaromVisibWave heightAir tempDewpointWater temp
2015-May-28 07:33N 30°53' W 118°08'1817.5
2015-May-28 06:31N 31°08' W 118°20'1717.5
2015-May-28 05:33N 31°22' W 118°32'1817.6
2015-May-28 04:31N 31°36' W 118°44'1717.4
2015-May-28 03:33N 31°50' W 118°56'1917.4
2015-May-28 02:27N 32°05' W 119°09'4117.5
2015-May-28 00:06N 32°39' W 119°38'3417.4
2015-May-27 22:09N 33°06' W 120°02'11517.4
2015-May-27 15:33N 34°41' W 121°20'1818.5
2015-May-27 14:33N 34°57' W 121°29'3417.2
2015-May-27 12:33N 35°29' W 121°46'1717.2
2015-May-27 11:33N 35°45' W 121°56'1717.5
2015-May-27 10:33N 36°00' W 122°04'1717.4
2015-May-27 09:33N 36°16' W 122°13'1817.7
2015-May-27 08:33N 36°32' W 122°22'1817.7
2015-May-27 07:33N 36°48' W 122°32'1717.3
2015-May-27 06:33N 37°04' W 122°40'1615.7
2015-May-27 05:33N 37°20' W 122°44'10 9.7
2015-May-27 04:33N 37°29' W 122°43'10 9.8
2015-May-27 03:33N 37°39' W 122°43'9 9.1
2015-May-27 02:33N 37°46' W 122°37'1312.6
2015-May-27 01:33N 37°48' W 122°21'1 1.3
2015-May-27 00:32N 37°49' W 122°19'0 0.0
2015-May-26 23:29N 37°49' W 122°19'0 0.0
2015-May-26 22:32N 37°49' W 122°19'0 0.0
2015-May-26 21:29N 37°49' W 122°19'0 0.0
2015-May-26 20:23N 37°49' W 122°19'0 0.0
2015-May-26 19:32N 37°49' W 122°19'0 0.0
2015-May-26 18:32N 37°49' W 122°19'0 0.0
2015-May-26 17:32N 37°49' W 122°19'0 0.0
2015-May-26 16:32N 37°49' W 122°19'0 0.0
2015-May-26 15:32N 37°49' W 122°19'0 0.0
2015-May-26 14:32N 37°49' W 122°19'0 0.0
2015-May-26 13:32N 37°49' W 122°19'1 1.1
2015-May-26 12:33N 37°49' W 122°20'4 4.3
2015-May-26 11:31N 37°44' W 122°20'0 0.0
2015-May-26 10:32N 37°44' W 122°20'0 0.1
2015-May-26 09:31N 37°44' W 122°20'0 0.2
2015-May-26 08:32N 37°44' W 122°20'0 0.0
2015-May-26 07:31N 37°44' W 122°20'0 0.0
2015-May-26 06:31N 37°44' W 122°20'0 0.0
2015-May-26 05:31N 37°44' W 122°20'0 0.1
2015-May-26 04:31N 37°44' W 122°20'0 0.1
2015-May-26 03:31N 37°44' W 122°20'0 0.0
2015-May-26 02:31N 37°44' W 122°20'0 0.1
2015-May-26 01:28N 37°44' W 122°20'1 0.6
2015-May-26 00:33N 37°44' W 122°20'9 9.4
2015-May-25 23:33N 37°48' W 122°31'1010.1
2015-May-25 22:33N 37°41' W 122°40'9 9.2
2015-May-25 21:33N 37°32' W 122°40'9 9.5
2015-May-25 20:33N 37°22' W 122°40'9 9.3
2015-May-25 19:33N 37°13' W 122°37'1010.1
2015-May-25 18:33N 37°04' W 122°31'1010.2
2015-May-25 17:32N 36°55' W 122°25'1010.6
2015-May-25 16:33N 36°46' W 122°20'1111.0
2015-May-25 15:33N 36°36' W 122°13'1111.2
2015-May-25 14:33N 36°26' W 122°07'1111.1
2015-May-25 13:33N 36°16' W 122°01'1111.1
2015-May-25 12:33N 36°06' W 121°54'1111.3
2015-May-25 11:33N 35°56' W 121°48'1111.2
2015-May-25 10:33N 35°46' W 121°42'1211.7
2015-May-25 09:31N 35°35' W 121°35'1411.6
2015-May-25 08:17N 35°23' W 121°27'811.2
2015-May-25 07:32N 35°15' W 121°22'1111.2
2015-May-25 06:33N 35°05' W 121°16'1111.0
2015-May-25 05:33N 34°56' W 121°10'1211.3
2015-May-25 04:30N 34°45' W 121°03'1211.3
2015-May-25 03:29N 34°35' W 120°57'1011.1
2015-May-25 02:33N 34°26' W 120°51'13810.7
2015-May-24 13:33N 33°44' W 118°12'3 3.1
2015-May-24 12:32N 33°46' W 118°14'0 0.0
2015-May-24 11:32N 33°46' W 118°14'0 0.0
2015-May-24 10:32N 33°46' W 118°14'0 0.0
2015-May-24 09:14N 33°46' W 118°14'0 0.1
2015-May-24 08:32N 33°46' W 118°14'0 0.0
2015-May-24 07:32N 33°46' W 118°14'0 0.0
2015-May-24 06:29N 33°46' W 118°14'0 0.1
2015-May-24 05:32N 33°46' W 118°14'0 0.0
2015-May-24 04:11N 33°46' W 118°14'0 0.0
2015-May-24 03:32N 33°46' W 118°14'0 0.0
2015-May-24 02:32N 33°46' W 118°14'0 0.0
2015-May-24 01:32N 33°46' W 118°14'0 0.0
2015-May-24 00:32N 33°46' W 118°14'0 0.0
2015-May-23 23:32N 33°46' W 118°14'0 0.0
2015-May-23 22:29N 33°46' W 118°14'0 0.0
2015-May-23 21:29N 33°46' W 118°14'0 0.0
2015-May-23 20:32N 33°46' W 118°14'0 0.0
2015-May-23 19:32N 33°46' W 118°14'0 0.0
2015-May-23 18:29N 33°46' W 118°14'0 0.0
2015-May-23 17:32N 33°46' W 118°14'0 0.0
2015-May-23 16:32N 33°46' W 118°14'0 0.0
2015-May-23 15:32N 33°46' W 118°14'0 0.0
2015-May-23 14:32N 33°46' W 118°14'0 0.0
2015-May-23 13:32N 33°46' W 118°14'0 0.0
2015-May-23 12:32N 33°46' W 118°14'0 0.0
2015-May-23 11:32N 33°46' W 118°14'2 1.6
2015-May-23 10:33N 33°45' W 118°13'9 6.4
2015-May-23 09:14N 33°37' W 118°15'  
2015-May-20 16:32N 33°32' W 118°09'1010.7
2015-May-20 15:33N 33°23' W 118°04'8 8.1
2015-May-20 14:34N 33°15' W 118°01'1211.8
2015-May-20 13:34N 33°04' W 117°56'1413.8
2015-May-20 12:33N 32°51' W 117°51'1414.2
2015-May-20 11:33N 32°38' W 117°44'1414.1
2015-May-20 10:33N 32°24' W 117°39'1514.3
2015-May-20 09:30N 32°10' W 117°34'1614.2
2015-May-20 08:22N 31°55' W 117°27'1214.2
2015-May-20 07:30N 31°44' W 117°22'1414.3
2015-May-20 06:33N 31°31' W 117°16'  

Dump ship's entire track history